sensor_id;sensor_type;location;lat;lon;timestamp;P1;durP1;ratioP1;P2;durP2;ratioP2
68097;SDS011;54886;47.036;15.466;2023-12-20T00:01:00;24.13;;;13.00;;
68097;SDS011;54886;47.036;15.466;2023-12-20T00:03:25;24.02;;;12.10;;
68097;SDS011;54886;47.036;15.466;2023-12-20T00:05:51;25.42;;;12.80;;
68097;SDS011;54886;47.036;15.466;2023-12-20T00:08:16;23.17;;;12.73;;
68097;SDS011;54886;47.036;15.466;2023-12-20T00:10:42;19.35;;;12.20;;
68097;SDS011;54886;47.036;15.466;2023-12-20T00:13:08;21.20;;;11.82;;
68097;SDS011;54886;47.036;15.466;2023-12-20T00:15:34;20.40;;;11.70;;
68097;SDS011;54886;47.036;15.466;2023-12-20T00:17:59;19.77;;;10.88;;
68097;SDS011;54886;47.036;15.466;2023-12-20T00:20:26;18.13;;;11.02;;
68097;SDS011;54886;47.036;15.466;2023-12-20T00:22:51;19.33;;;10.82;;
68097;SDS011;54886;47.036;15.466;2023-12-20T00:25:16;17.50;;;10.30;;
68097;SDS011;54886;47.036;15.466;2023-12-20T00:27:42;18.55;;;10.63;;
68097;SDS011;54886;47.036;15.466;2023-12-20T00:30:08;20.20;;;9.95;;
68097;SDS011;54886;47.036;15.466;2023-12-20T00:32:34;16.92;;;9.95;;
68097;SDS011;54886;47.036;15.466;2023-12-20T00:35:00;19.83;;;10.45;;
68097;SDS011;54886;47.036;15.466;2023-12-20T00:37:26;18.95;;;9.82;;
68097;SDS011;54886;47.036;15.466;2023-12-20T00:39:51;16.25;;;9.10;;
68097;SDS011;54886;47.036;15.466;2023-12-20T00:42:16;17.15;;;9.38;;
68097;SDS011;54886;47.036;15.466;2023-12-20T00:44:42;23.73;;;9.25;;
68097;SDS011;54886;47.036;15.466;2023-12-20T00:47:07;18.80;;;10.00;;
68097;SDS011;54886;47.036;15.466;2023-12-20T00:49:32;19.45;;;9.82;;
68097;SDS011;54886;47.036;15.466;2023-12-20T00:51:58;19.27;;;9.50;;
68097;SDS011;54886;47.036;15.466;2023-12-20T00:54:23;19.92;;;10.27;;
68097;SDS011;54886;47.036;15.466;2023-12-20T00:56:48;17.63;;;9.48;;
68097;SDS011;54886;47.036;15.466;2023-12-20T00:59:15;18.30;;;9.55;;
68097;SDS011;54886;47.036;15.466;2023-12-20T01:01:41;17.13;;;9.65;;
68097;SDS011;54886;47.036;15.466;2023-12-20T01:04:07;20.52;;;9.48;;
68097;SDS011;54886;47.036;15.466;2023-12-20T01:06:32;18.65;;;9.85;;
68097;SDS011;54886;47.036;15.466;2023-12-20T01:08:57;18.95;;;10.35;;
68097;SDS011;54886;47.036;15.466;2023-12-20T01:11:23;16.88;;;9.35;;
68097;SDS011;54886;47.036;15.466;2023-12-20T01:13:48;19.88;;;10.20;;
68097;SDS011;54886;47.036;15.466;2023-12-20T01:16:14;16.52;;;9.35;;
68097;SDS011;54886;47.036;15.466;2023-12-20T01:18:39;17.67;;;9.73;;
68097;SDS011;54886;47.036;15.466;2023-12-20T01:21:04;17.75;;;9.05;;
68097;SDS011;54886;47.036;15.466;2023-12-20T01:23:30;18.98;;;9.80;;
68097;SDS011;54886;47.036;15.466;2023-12-20T01:25:56;18.00;;;9.38;;
68097;SDS011;54886;47.036;15.466;2023-12-20T01:28:21;18.70;;;9.68;;
68097;SDS011;54886;47.036;15.466;2023-12-20T01:30:47;19.90;;;9.60;;
68097;SDS011;54886;47.036;15.466;2023-12-20T01:33:12;19.25;;;9.80;;
68097;SDS011;54886;47.036;15.466;2023-12-20T01:35:37;19.52;;;9.98;;
68097;SDS011;54886;47.036;15.466;2023-12-20T01:38:03;22.60;;;10.25;;
68097;SDS011;54886;47.036;15.466;2023-12-20T01:40:28;19.00;;;10.13;;
68097;SDS011;54886;47.036;15.466;2023-12-20T01:43:00;15.02;;;9.25;;
68097;SDS011;54886;47.036;15.466;2023-12-20T01:45:26;18.30;;;9.82;;
68097;SDS011;54886;47.036;15.466;2023-12-20T01:47:52;17.88;;;9.50;;
68097;SDS011;54886;47.036;15.466;2023-12-20T01:50:19;18.35;;;9.57;;
68097;SDS011;54886;47.036;15.466;2023-12-20T01:52:46;16.60;;;9.43;;
68097;SDS011;54886;47.036;15.466;2023-12-20T01:55:11;17.55;;;8.60;;
68097;SDS011;54886;47.036;15.466;2023-12-20T02:00:06;15.18;;;8.30;;
68097;SDS011;54886;47.036;15.466;2023-12-20T02:02:32;14.07;;;8.85;;
68097;SDS011;54886;47.036;15.466;2023-12-20T02:04:58;17.27;;;9.15;;
68097;SDS011;54886;47.036;15.466;2023-12-20T02:07:24;17.17;;;9.77;;
68097;SDS011;54886;47.036;15.466;2023-12-20T02:09:49;16.30;;;8.68;;
68097;SDS011;54886;47.036;15.466;2023-12-20T02:12:15;14.32;;;8.52;;
68097;SDS011;54886;47.036;15.466;2023-12-20T02:14:40;16.25;;;9.20;;
68097;SDS011;54886;47.036;15.466;2023-12-20T02:17:06;20.17;;;9.43;;
68097;SDS011;54886;47.036;15.466;2023-12-20T02:19:31;20.30;;;10.10;;
68097;SDS011;54886;47.036;15.466;2023-12-20T02:22:07;18.27;;;10.23;;
68097;SDS011;54886;47.036;15.466;2023-12-20T02:24:33;20.35;;;10.50;;
68097;SDS011;54886;47.036;15.466;2023-12-20T02:26:59;21.10;;;10.68;;
68097;SDS011;54886;47.036;15.466;2023-12-20T02:29:24;20.05;;;10.25;;
68097;SDS011;54886;47.036;15.466;2023-12-20T02:31:50;19.95;;;10.27;;
68097;SDS011;54886;47.036;15.466;2023-12-20T02:34:15;18.17;;;10.23;;
68097;SDS011;54886;47.036;15.466;2023-12-20T02:36:41;19.15;;;9.98;;
68097;SDS011;54886;47.036;15.466;2023-12-20T02:39:06;17.75;;;9.23;;
68097;SDS011;54886;47.036;15.466;2023-12-20T02:41:32;21.77;;;9.52;;
68097;SDS011;54886;47.036;15.466;2023-12-20T02:43:57;17.33;;;9.45;;
68097;SDS011;54886;47.036;15.466;2023-12-20T02:46:22;20.15;;;10.38;;
68097;SDS011;54886;47.036;15.466;2023-12-20T02:48:48;18.98;;;9.35;;
68097;SDS011;54886;47.036;15.466;2023-12-20T02:51:13;19.80;;;9.57;;
68097;SDS011;54886;47.036;15.466;2023-12-20T02:53:39;16.75;;;9.23;;
68097;SDS011;54886;47.036;15.466;2023-12-20T02:56:04;16.20;;;8.65;;
68097;SDS011;54886;47.036;15.466;2023-12-20T02:58:29;17.75;;;9.27;;
68097;SDS011;54886;47.036;15.466;2023-12-20T03:00:55;17.85;;;9.27;;
68097;SDS011;54886;47.036;15.466;2023-12-20T03:03:20;20.05;;;9.63;;
68097;SDS011;54886;47.036;15.466;2023-12-20T03:05:45;20.65;;;10.60;;
68097;SDS011;54886;47.036;15.466;2023-12-20T03:08:11;19.75;;;8.93;;
68097;SDS011;54886;47.036;15.466;2023-12-20T03:10:37;18.65;;;10.00;;
68097;SDS011;54886;47.036;15.466;2023-12-20T03:13:02;18.98;;;9.85;;
68097;SDS011;54886;47.036;15.466;2023-12-20T03:15:27;19.33;;;9.68;;
68097;SDS011;54886;47.036;15.466;2023-12-20T03:17:53;15.10;;;8.85;;
68097;SDS011;54886;47.036;15.466;2023-12-20T03:20:18;17.80;;;9.60;;
68097;SDS011;54886;47.036;15.466;2023-12-20T03:22:43;16.80;;;8.85;;
68097;SDS011;54886;47.036;15.466;2023-12-20T03:25:09;16.48;;;9.20;;
68097;SDS011;54886;47.036;15.466;2023-12-20T03:27:36;15.50;;;8.45;;
68097;SDS011;54886;47.036;15.466;2023-12-20T03:30:03;18.70;;;8.98;;
68097;SDS011;54886;47.036;15.466;2023-12-20T03:32:29;17.20;;;9.00;;
68097;SDS011;54886;47.036;15.466;2023-12-20T03:34:55;15.88;;;8.45;;
68097;SDS011;54886;47.036;15.466;2023-12-20T03:37:21;16.42;;;8.45;;
68097;SDS011;54886;47.036;15.466;2023-12-20T03:39:47;15.35;;;8.27;;
68097;SDS011;54886;47.036;15.466;2023-12-20T03:42:12;16.40;;;8.07;;
68097;SDS011;54886;47.036;15.466;2023-12-20T03:44:40;17.05;;;8.18;;
68097;SDS011;54886;47.036;15.466;2023-12-20T03:49:31;13.60;;;6.97;;
68097;SDS011;54886;47.036;15.466;2023-12-20T03:51:57;12.90;;;6.90;;
68097;SDS011;54886;47.036;15.466;2023-12-20T03:54:22;14.68;;;7.60;;
68097;SDS011;54886;47.036;15.466;2023-12-20T03:56:47;16.95;;;7.65;;
68097;SDS011;54886;47.036;15.466;2023-12-20T03:59:13;15.57;;;7.40;;
68097;SDS011;54886;47.036;15.466;2023-12-20T04:01:40;12.05;;;6.35;;
68097;SDS011;54886;47.036;15.466;2023-12-20T04:04:08;13.30;;;6.90;;
68097;SDS011;54886;47.036;15.466;2023-12-20T04:06:33;13.40;;;6.88;;
68097;SDS011;54886;47.036;15.466;2023-12-20T04:08:59;13.02;;;7.00;;
68097;SDS011;54886;47.036;15.466;2023-12-20T04:11:24;11.32;;;6.28;;
68097;SDS011;54886;47.036;15.466;2023-12-20T04:13:50;13.35;;;6.55;;
68097;SDS011;54886;47.036;15.466;2023-12-20T04:16:15;14.50;;;6.85;;
68097;SDS011;54886;47.036;15.466;2023-12-20T04:18:41;13.65;;;6.43;;
68097;SDS011;54886;47.036;15.466;2023-12-20T04:21:06;13.73;;;6.80;;
68097;SDS011;54886;47.036;15.466;2023-12-20T04:23:32;17.08;;;7.38;;
68097;SDS011;54886;47.036;15.466;2023-12-20T04:25:57;14.65;;;7.45;;
68097;SDS011;54886;47.036;15.466;2023-12-20T04:28:23;14.70;;;7.25;;
68097;SDS011;54886;47.036;15.466;2023-12-20T04:30:48;16.65;;;7.65;;
68097;SDS011;54886;47.036;15.466;2023-12-20T04:33:14;13.82;;;7.40;;
68097;SDS011;54886;47.036;15.466;2023-12-20T04:35:39;14.77;;;8.13;;
68097;SDS011;54886;47.036;15.466;2023-12-20T04:38:06;14.18;;;7.45;;
68097;SDS011;54886;47.036;15.466;2023-12-20T04:40:31;16.33;;;8.63;;
68097;SDS011;54886;47.036;15.466;2023-12-20T04:42:57;20.17;;;7.97;;
68097;SDS011;54886;47.036;15.466;2023-12-20T04:45:22;14.65;;;7.95;;
68097;SDS011;54886;47.036;15.466;2023-12-20T04:47:49;18.25;;;8.70;;
68097;SDS011;54886;47.036;15.466;2023-12-20T04:50:15;16.67;;;8.65;;
68097;SDS011;54886;47.036;15.466;2023-12-20T04:52:41;15.05;;;8.07;;
68097;SDS011;54886;47.036;15.466;2023-12-20T04:55:07;17.13;;;9.20;;
68097;SDS011;54886;47.036;15.466;2023-12-20T04:57:34;23.17;;;9.73;;
68097;SDS011;54886;47.036;15.466;2023-12-20T05:00:00;18.35;;;9.57;;
68097;SDS011;54886;47.036;15.466;2023-12-20T05:02:25;21.92;;;10.48;;
68097;SDS011;54886;47.036;15.466;2023-12-20T05:04:51;20.23;;;10.15;;
68097;SDS011;54886;47.036;15.466;2023-12-20T05:07:16;21.98;;;9.98;;
68097;SDS011;54886;47.036;15.466;2023-12-20T05:09:41;18.98;;;9.63;;
68097;SDS011;54886;47.036;15.466;2023-12-20T05:12:07;23.38;;;8.93;;
68097;SDS011;54886;47.036;15.466;2023-12-20T05:14:33;21.45;;;9.20;;
68097;SDS011;54886;47.036;15.466;2023-12-20T05:16:58;15.60;;;8.95;;
68097;SDS011;54886;47.036;15.466;2023-12-20T05:19:24;18.60;;;8.93;;
68097;SDS011;54886;47.036;15.466;2023-12-20T05:21:49;17.52;;;9.35;;
68097;SDS011;54886;47.036;15.466;2023-12-20T05:24:15;15.18;;;7.90;;
68097;SDS011;54886;47.036;15.466;2023-12-20T05:26:40;18.70;;;9.02;;
68097;SDS011;54886;47.036;15.466;2023-12-20T05:29:06;15.43;;;8.30;;
68097;SDS011;54886;47.036;15.466;2023-12-20T05:31:31;18.05;;;9.05;;
68097;SDS011;54886;47.036;15.466;2023-12-20T05:33:57;15.23;;;8.70;;
68097;SDS011;54886;47.036;15.466;2023-12-20T05:36:23;15.80;;;9.10;;
68097;SDS011;54886;47.036;15.466;2023-12-20T05:38:48;17.98;;;8.73;;
68097;SDS011;54886;47.036;15.466;2023-12-20T05:41:14;16.35;;;8.13;;
68097;SDS011;54886;47.036;15.466;2023-12-20T05:43:39;15.95;;;8.50;;
68097;SDS011;54886;47.036;15.466;2023-12-20T05:46:04;19.38;;;9.43;;
68097;SDS011;54886;47.036;15.466;2023-12-20T05:48:30;15.48;;;9.13;;
68097;SDS011;54886;47.036;15.466;2023-12-20T05:50:55;14.93;;;8.18;;
68097;SDS011;54886;47.036;15.466;2023-12-20T05:53:21;16.58;;;7.88;;
68097;SDS011;54886;47.036;15.466;2023-12-20T05:55:46;15.55;;;7.82;;
68097;SDS011;54886;47.036;15.466;2023-12-20T05:58:12;15.40;;;7.38;;
68097;SDS011;54886;47.036;15.466;2023-12-20T06:00:37;15.55;;;8.60;;
68097;SDS011;54886;47.036;15.466;2023-12-20T06:03:03;14.85;;;8.07;;
68097;SDS011;54886;47.036;15.466;2023-12-20T06:05:30;15.45;;;8.57;;
68097;SDS011;54886;47.036;15.466;2023-12-20T06:07:55;16.88;;;8.38;;
68097;SDS011;54886;47.036;15.466;2023-12-20T06:10:26;16.05;;;7.95;;
68097;SDS011;54886;47.036;15.466;2023-12-20T06:12:51;13.18;;;7.22;;
68097;SDS011;54886;47.036;15.466;2023-12-20T06:15:17;14.80;;;8.25;;
68097;SDS011;54886;47.036;15.466;2023-12-20T06:17:42;13.25;;;7.72;;
68097;SDS011;54886;47.036;15.466;2023-12-20T06:20:09;13.95;;;7.78;;
68097;SDS011;54886;47.036;15.466;2023-12-20T06:22:35;13.82;;;7.45;;
68097;SDS011;54886;47.036;15.466;2023-12-20T06:25:01;11.70;;;6.00;;
68097;SDS011;54886;47.036;15.466;2023-12-20T06:27:28;12.82;;;6.75;;
68097;SDS011;54886;47.036;15.466;2023-12-20T06:29:53;13.18;;;6.88;;
68097;SDS011;54886;47.036;15.466;2023-12-20T06:32:19;15.02;;;8.15;;
68097;SDS011;54886;47.036;15.466;2023-12-20T06:34:44;15.43;;;8.15;;
68097;SDS011;54886;47.036;15.466;2023-12-20T06:37:10;18.23;;;8.82;;
68097;SDS011;54886;47.036;15.466;2023-12-20T06:39:35;15.73;;;7.68;;
68097;SDS011;54886;47.036;15.466;2023-12-20T06:42:01;16.92;;;8.10;;
68097;SDS011;54886;47.036;15.466;2023-12-20T06:44:27;17.33;;;8.68;;
68097;SDS011;54886;47.036;15.466;2023-12-20T06:46:52;16.13;;;8.55;;
68097;SDS011;54886;47.036;15.466;2023-12-20T06:49:18;19.80;;;9.10;;
68097;SDS011;54886;47.036;15.466;2023-12-20T06:51:43;20.42;;;10.18;;
68097;SDS011;54886;47.036;15.466;2023-12-20T06:54:09;17.92;;;9.68;;
68097;SDS011;54886;47.036;15.466;2023-12-20T06:56:34;17.98;;;10.27;;
68097;SDS011;54886;47.036;15.466;2023-12-20T06:59:00;23.27;;;12.27;;
68097;SDS011;54886;47.036;15.466;2023-12-20T07:01:25;18.25;;;9.93;;
68097;SDS011;54886;47.036;15.466;2023-12-20T07:03:50;21.02;;;11.98;;
68097;SDS011;54886;47.036;15.466;2023-12-20T07:06:16;23.65;;;11.77;;
68097;SDS011;54886;47.036;15.466;2023-12-20T07:08:42;22.95;;;11.68;;
68097;SDS011;54886;47.036;15.466;2023-12-20T07:11:07;20.00;;;11.57;;
68097;SDS011;54886;47.036;15.466;2023-12-20T07:13:33;23.67;;;12.57;;
68097;SDS011;54886;47.036;15.466;2023-12-20T07:15:58;19.85;;;11.48;;
68097;SDS011;54886;47.036;15.466;2023-12-20T07:18:24;27.35;;;12.82;;
68097;SDS011;54886;47.036;15.466;2023-12-20T07:20:49;28.27;;;14.40;;
68097;SDS011;54886;47.036;15.466;2023-12-20T07:23:15;28.30;;;13.90;;
68097;SDS011;54886;47.036;15.466;2023-12-20T07:25:40;30.33;;;14.23;;
68097;SDS011;54886;47.036;15.466;2023-12-20T07:28:05;23.63;;;13.07;;
68097;SDS011;54886;47.036;15.466;2023-12-20T07:30:31;25.27;;;13.43;;
68097;SDS011;54886;47.036;15.466;2023-12-20T07:32:56;23.92;;;12.52;;
68097;SDS011;54886;47.036;15.466;2023-12-20T07:35:23;25.83;;;12.68;;
68097;SDS011;54886;47.036;15.466;2023-12-20T07:37:48;25.13;;;13.07;;
68097;SDS011;54886;47.036;15.466;2023-12-20T07:40:13;41.92;;;17.85;;
68097;SDS011;54886;47.036;15.466;2023-12-20T07:42:41;44.22;;;23.13;;
68097;SDS011;54886;47.036;15.466;2023-12-20T07:45:06;41.95;;;20.92;;
68097;SDS011;54886;47.036;15.466;2023-12-20T07:47:32;35.80;;;18.40;;
68097;SDS011;54886;47.036;15.466;2023-12-20T07:49:57;29.30;;;16.40;;
68097;SDS011;54886;47.036;15.466;2023-12-20T07:52:23;29.63;;;16.40;;
68097;SDS011;54886;47.036;15.466;2023-12-20T07:54:48;24.65;;;15.02;;
68097;SDS011;54886;47.036;15.466;2023-12-20T07:57:13;27.00;;;15.50;;
68097;SDS011;54886;47.036;15.466;2023-12-20T07:59:39;27.30;;;15.88;;
68097;SDS011;54886;47.036;15.466;2023-12-20T08:02:04;29.10;;;15.60;;
68097;SDS011;54886;47.036;15.466;2023-12-20T08:04:30;25.63;;;14.20;;
68097;SDS011;54886;47.036;15.466;2023-12-20T08:06:55;22.08;;;13.40;;
68097;SDS011;54886;47.036;15.466;2023-12-20T08:09:21;28.35;;;13.85;;
68097;SDS011;54886;47.036;15.466;2023-12-20T08:11:47;24.90;;;14.13;;
68097;SDS011;54886;47.036;15.466;2023-12-20T08:14:12;21.73;;;13.35;;
68097;SDS011;54886;47.036;15.466;2023-12-20T08:16:38;21.85;;;13.05;;
68097;SDS011;54886;47.036;15.466;2023-12-20T08:19:04;21.58;;;12.68;;
68097;SDS011;54886;47.036;15.466;2023-12-20T08:21:29;20.73;;;12.85;;
68097;SDS011;54886;47.036;15.466;2023-12-20T08:23:54;22.65;;;12.38;;
68097;SDS011;54886;47.036;15.466;2023-12-20T08:26:20;22.10;;;12.30;;
68097;SDS011;54886;47.036;15.466;2023-12-20T08:28:47;22.63;;;12.38;;
68097;SDS011;54886;47.036;15.466;2023-12-20T08:31:18;21.48;;;11.23;;
68097;SDS011;54886;47.036;15.466;2023-12-20T08:33:44;22.13;;;11.23;;
68097;SDS011;54886;47.036;15.466;2023-12-20T08:36:10;19.65;;;10.98;;
68097;SDS011;54886;47.036;15.466;2023-12-20T08:38:36;19.13;;;11.15;;
68097;SDS011;54886;47.036;15.466;2023-12-20T08:41:01;26.40;;;11.10;;
68097;SDS011;54886;47.036;15.466;2023-12-20T08:43:28;20.02;;;10.93;;
68097;SDS011;54886;47.036;15.466;2023-12-20T08:45:53;21.63;;;11.27;;
68097;SDS011;54886;47.036;15.466;2023-12-20T08:48:19;20.77;;;10.63;;
68097;SDS011;54886;47.036;15.466;2023-12-20T08:50:44;24.35;;;13.48;;
68097;SDS011;54886;47.036;15.466;2023-12-20T08:53:10;28.38;;;13.43;;
68097;SDS011;54886;47.036;15.466;2023-12-20T08:55:36;26.80;;;14.52;;
68097;SDS011;54886;47.036;15.466;2023-12-20T08:58:02;24.52;;;13.68;;
68097;SDS011;54886;47.036;15.466;2023-12-20T09:00:27;29.35;;;14.15;;
68097;SDS011;54886;47.036;15.466;2023-12-20T09:02:53;25.27;;;13.63;;
68097;SDS011;54886;47.036;15.466;2023-12-20T09:05:19;25.00;;;13.77;;
68097;SDS011;54886;47.036;15.466;2023-12-20T09:07:45;24.35;;;13.48;;
68097;SDS011;54886;47.036;15.466;2023-12-20T09:10:10;23.10;;;12.88;;
68097;SDS011;54886;47.036;15.466;2023-12-20T09:12:35;22.17;;;12.40;;
68097;SDS011;54886;47.036;15.466;2023-12-20T09:15:04;23.35;;;13.40;;
68097;SDS011;54886;47.036;15.466;2023-12-20T09:17:30;19.42;;;12.55;;
68097;SDS011;54886;47.036;15.466;2023-12-20T09:19:56;23.77;;;12.63;;
68097;SDS011;54886;47.036;15.466;2023-12-20T09:22:21;21.95;;;13.35;;
68097;SDS011;54886;47.036;15.466;2023-12-20T09:24:47;20.50;;;12.00;;
68097;SDS011;54886;47.036;15.466;2023-12-20T09:27:12;20.23;;;11.43;;
68097;SDS011;54886;47.036;15.466;2023-12-20T09:29:37;19.77;;;11.57;;
68097;SDS011;54886;47.036;15.466;2023-12-20T09:32:03;20.83;;;11.13;;
68097;SDS011;54886;47.036;15.466;2023-12-20T09:34:28;23.35;;;10.38;;
68097;SDS011;54886;47.036;15.466;2023-12-20T09:36:54;18.73;;;10.15;;
68097;SDS011;54886;47.036;15.466;2023-12-20T09:39:21;20.27;;;10.70;;
68097;SDS011;54886;47.036;15.466;2023-12-20T09:44:28;16.95;;;10.20;;
68097;SDS011;54886;47.036;15.466;2023-12-20T09:46:55;18.80;;;9.85;;
68097;SDS011;54886;47.036;15.466;2023-12-20T09:49:21;19.77;;;10.18;;
68097;SDS011;54886;47.036;15.466;2023-12-20T09:51:47;22.40;;;9.73;;
68097;SDS011;54886;47.036;15.466;2023-12-20T09:54:19;19.50;;;9.52;;
68097;SDS011;54886;47.036;15.466;2023-12-20T09:56:46;17.52;;;9.20;;
68097;SDS011;54886;47.036;15.466;2023-12-20T09:59:11;16.48;;;8.77;;
68097;SDS011;54886;47.036;15.466;2023-12-20T10:01:38;18.75;;;9.05;;
68097;SDS011;54886;47.036;15.466;2023-12-20T10:04:05;17.13;;;9.73;;
68097;SDS011;54886;47.036;15.466;2023-12-20T10:06:37;19.23;;;9.55;;
68097;SDS011;54886;47.036;15.466;2023-12-20T10:09:06;16.73;;;9.25;;
68097;SDS011;54886;47.036;15.466;2023-12-20T10:11:31;19.67;;;9.00;;
68097;SDS011;54886;47.036;15.466;2023-12-20T10:14:00;18.92;;;9.40;;
68097;SDS011;54886;47.036;15.466;2023-12-20T10:16:29;16.92;;;9.30;;
68097;SDS011;54886;47.036;15.466;2023-12-20T10:18:55;16.45;;;9.15;;
68097;SDS011;54886;47.036;15.466;2023-12-20T10:21:20;16.08;;;8.95;;
68097;SDS011;54886;47.036;15.466;2023-12-20T10:23:47;15.38;;;8.52;;
68097;SDS011;54886;47.036;15.466;2023-12-20T10:26:21;20.48;;;8.50;;
68097;SDS011;54886;47.036;15.466;2023-12-20T10:28:51;18.10;;;9.95;;
68097;SDS011;54886;47.036;15.466;2023-12-20T10:31:32;17.85;;;8.40;;
68097;SDS011;54886;47.036;15.466;2023-12-20T10:33:59;16.10;;;8.90;;
68097;SDS011;54886;47.036;15.466;2023-12-20T10:36:26;13.90;;;7.55;;
68097;SDS011;54886;47.036;15.466;2023-12-20T10:38:52;13.80;;;7.72;;
68097;SDS011;54886;47.036;15.466;2023-12-20T10:41:20;11.40;;;7.15;;
68097;SDS011;54886;47.036;15.466;2023-12-20T10:43:51;13.95;;;7.82;;
68097;SDS011;54886;47.036;15.466;2023-12-20T10:46:17;18.52;;;7.03;;
68097;SDS011;54886;47.036;15.466;2023-12-20T10:48:44;13.00;;;7.07;;
68097;SDS011;54886;47.036;15.466;2023-12-20T10:51:11;18.35;;;7.43;;
68097;SDS011;54886;47.036;15.466;2023-12-20T10:53:42;17.70;;;7.05;;
68097;SDS011;54886;47.036;15.466;2023-12-20T10:56:08;19.67;;;7.18;;
68097;SDS011;54886;47.036;15.466;2023-12-20T10:58:37;13.70;;;7.07;;
68097;SDS011;54886;47.036;15.466;2023-12-20T11:01:06;13.65;;;7.22;;
68097;SDS011;54886;47.036;15.466;2023-12-20T11:03:34;14.02;;;6.95;;
68097;SDS011;54886;47.036;15.466;2023-12-20T11:06:24;19.58;;;7.43;;
68097;SDS011;54886;47.036;15.466;2023-12-20T11:14:31;18.48;;;7.38;;
68097;SDS011;54886;47.036;15.466;2023-12-20T11:17:25;21.30;;;7.07;;
68097;SDS011;54886;47.036;15.466;2023-12-20T11:22:20;18.73;;;7.10;;
68097;SDS011;54886;47.036;15.466;2023-12-20T11:24:46;13.13;;;6.80;;
68097;SDS011;54886;47.036;15.466;2023-12-20T11:27:13;17.98;;;6.65;;
68097;SDS011;54886;47.036;15.466;2023-12-20T11:29:39;12.32;;;6.15;;
68097;SDS011;54886;47.036;15.466;2023-12-20T11:34:55;18.33;;;8.27;;
68097;SDS011;54886;47.036;15.466;2023-12-20T11:37:36;17.33;;;8.73;;
68097;SDS011;54886;47.036;15.466;2023-12-20T11:40:05;16.75;;;8.60;;
68097;SDS011;54886;47.036;15.466;2023-12-20T11:42:40;17.85;;;9.20;;
68097;SDS011;54886;47.036;15.466;2023-12-20T11:45:09;17.90;;;8.88;;
68097;SDS011;54886;47.036;15.466;2023-12-20T11:47:36;17.63;;;8.52;;
68097;SDS011;54886;47.036;15.466;2023-12-20T11:50:02;14.30;;;7.50;;
68097;SDS011;54886;47.036;15.466;2023-12-20T11:52:28;19.88;;;7.20;;
68097;SDS011;54886;47.036;15.466;2023-12-20T11:54:54;16.88;;;7.00;;
68097;SDS011;54886;47.036;15.466;2023-12-20T11:57:19;14.60;;;6.88;;
68097;SDS011;54886;47.036;15.466;2023-12-20T11:59:45;17.38;;;7.45;;
68097;SDS011;54886;47.036;15.466;2023-12-20T12:02:13;16.50;;;7.53;;
68097;SDS011;54886;47.036;15.466;2023-12-20T12:04:41;18.05;;;8.13;;
68097;SDS011;54886;47.036;15.466;2023-12-20T12:07:06;16.80;;;8.32;;
68097;SDS011;54886;47.036;15.466;2023-12-20T12:09:32;24.10;;;11.15;;
68097;SDS011;54886;47.036;15.466;2023-12-20T12:11:57;18.15;;;9.57;;
68097;SDS011;54886;47.036;15.466;2023-12-20T12:14:23;26.75;;;13.45;;
68097;SDS011;54886;47.036;15.466;2023-12-20T12:16:49;21.90;;;10.80;;
68097;SDS011;54886;47.036;15.466;2023-12-20T12:19:22;19.27;;;9.63;;
68097;SDS011;54886;47.036;15.466;2023-12-20T12:21:48;15.50;;;8.63;;
68097;SDS011;54886;47.036;15.466;2023-12-20T12:24:29;20.00;;;8.63;;
68097;SDS011;54886;47.036;15.466;2023-12-20T12:26:56;16.50;;;8.60;;
68097;SDS011;54886;47.036;15.466;2023-12-20T12:29:22;18.05;;;8.23;;
68097;SDS011;54886;47.036;15.466;2023-12-20T12:31:49;15.98;;;8.32;;
68097;SDS011;54886;47.036;15.466;2023-12-20T12:34:15;15.77;;;7.57;;
68097;SDS011;54886;47.036;15.466;2023-12-20T12:36:41;17.05;;;8.13;;
68097;SDS011;54886;47.036;15.466;2023-12-20T12:39:06;24.25;;;10.25;;
68097;SDS011;54886;47.036;15.466;2023-12-20T12:41:31;19.52;;;10.18;;
68097;SDS011;54886;47.036;15.466;2023-12-20T12:43:57;27.05;;;12.15;;
68097;SDS011;54886;47.036;15.466;2023-12-20T12:46:22;23.33;;;9.75;;
68097;SDS011;54886;47.036;15.466;2023-12-20T12:48:48;17.60;;;9.63;;
68097;SDS011;54886;47.036;15.466;2023-12-20T12:51:15;19.97;;;9.60;;
68097;SDS011;54886;47.036;15.466;2023-12-20T12:53:40;18.50;;;8.60;;
68097;SDS011;54886;47.036;15.466;2023-12-20T12:56:06;15.73;;;7.38;;
68097;SDS011;54886;47.036;15.466;2023-12-20T12:58:32;18.25;;;8.35;;
68097;SDS011;54886;47.036;15.466;2023-12-20T13:00:57;17.15;;;7.40;;
68097;SDS011;54886;47.036;15.466;2023-12-20T13:03:23;21.30;;;8.02;;
68097;SDS011;54886;47.036;15.466;2023-12-20T13:05:49;21.58;;;10.60;;
68097;SDS011;54886;47.036;15.466;2023-12-20T13:08:15;20.40;;;8.98;;
68097;SDS011;54886;47.036;15.466;2023-12-20T13:10:40;17.23;;;7.82;;
68097;SDS011;54886;47.036;15.466;2023-12-20T13:13:05;20.05;;;7.85;;
68097;SDS011;54886;47.036;15.466;2023-12-20T13:15:31;20.27;;;8.23;;
68097;SDS011;54886;47.036;15.466;2023-12-20T13:17:56;17.77;;;7.78;;
68097;SDS011;54886;47.036;15.466;2023-12-20T13:20:22;19.00;;;7.68;;
68097;SDS011;54886;47.036;15.466;2023-12-20T13:22:47;24.35;;;8.95;;
68097;SDS011;54886;47.036;15.466;2023-12-20T13:25:13;23.60;;;10.00;;
68097;SDS011;54886;47.036;15.466;2023-12-20T13:27:38;25.02;;;9.60;;
68097;SDS011;54886;47.036;15.466;2023-12-20T13:30:04;19.05;;;9.60;;
68097;SDS011;54886;47.036;15.466;2023-12-20T13:32:30;24.20;;;11.02;;
68097;SDS011;54886;47.036;15.466;2023-12-20T13:34:56;21.50;;;9.93;;
68097;SDS011;54886;47.036;15.466;2023-12-20T13:37:21;28.00;;;10.25;;
68097;SDS011;54886;47.036;15.466;2023-12-20T13:39:47;22.00;;;10.38;;
68097;SDS011;54886;47.036;15.466;2023-12-20T13:42:13;22.20;;;10.23;;
68097;SDS011;54886;47.036;15.466;2023-12-20T13:44:38;25.52;;;11.30;;
68097;SDS011;54886;47.036;15.466;2023-12-20T13:47:04;25.73;;;10.68;;
68097;SDS011;54886;47.036;15.466;2023-12-20T13:49:29;22.63;;;11.00;;
68097;SDS011;54886;47.036;15.466;2023-12-20T13:51:55;23.67;;;11.20;;
68097;SDS011;54886;47.036;15.466;2023-12-20T13:54:20;23.60;;;12.18;;
68097;SDS011;54886;47.036;15.466;2023-12-20T13:56:47;26.58;;;13.15;;
68097;SDS011;54886;47.036;15.466;2023-12-20T13:59:12;25.10;;;13.63;;
68097;SDS011;54886;47.036;15.466;2023-12-20T14:01:40;30.00;;;14.73;;
68097;SDS011;54886;47.036;15.466;2023-12-20T14:04:05;30.80;;;14.40;;
68097;SDS011;54886;47.036;15.466;2023-12-20T14:06:31;28.98;;;13.52;;
68097;SDS011;54886;47.036;15.466;2023-12-20T14:08:57;34.95;;;16.08;;
68097;SDS011;54886;47.036;15.466;2023-12-20T14:11:25;33.63;;;14.88;;
68097;SDS011;54886;47.036;15.466;2023-12-20T14:13:51;31.05;;;15.43;;
68097;SDS011;54886;47.036;15.466;2023-12-20T14:16:16;31.92;;;17.58;;
68097;SDS011;54886;47.036;15.466;2023-12-20T14:18:41;30.35;;;14.15;;
68097;SDS011;54886;47.036;15.466;2023-12-20T14:21:07;26.75;;;14.32;;
68097;SDS011;54886;47.036;15.466;2023-12-20T14:23:32;31.60;;;14.25;;
68097;SDS011;54886;47.036;15.466;2023-12-20T14:25:58;29.42;;;14.70;;
68097;SDS011;54886;47.036;15.466;2023-12-20T14:28:24;33.97;;;14.73;;